Terminal Aerodrome Forecast
Issued by NWS Binghamton, NY

Home | Current Version | Previous Version | Text Only | Print | Product List | Glossary On
Versions: 1 2 3 4 5 6 7 8 9 10 11 12 13 14 15 16 17 18 19
000
FTUS41 KBGM 231700
TAFAVP
TAF
KAVP 231731Z 2318/2418 35011KT P6SM OVC015
      TEMPO 2318/2320 3SM -RA BR
     FM232000 35009KT P6SM -RA OVC015
     FM240100 33010KT P6SM BKN015 OVC060
     FM241700 33010KT P6SM FEW015 SCT060=

USA.gov is the U.S. government's official web portal to all federal, state and local government web resources and services.